sensor_id;sensor_type;location;lat;lon;timestamp;P1;durP1;ratioP1;P2;durP2;ratioP2
21661;SDS011;10992;48.170;8.596;2024-03-02T00:00:20;27.55;;;17.20;;
21661;SDS011;10992;48.170;8.596;2024-03-02T00:02:49;33.38;;;18.67;;
21661;SDS011;10992;48.170;8.596;2024-03-02T00:05:20;29.58;;;18.00;;
21661;SDS011;10992;48.170;8.596;2024-03-02T00:07:57;30.60;;;18.48;;
21661;SDS011;10992;48.170;8.596;2024-03-02T00:10:25;28.92;;;18.05;;
21661;SDS011;10992;48.170;8.596;2024-03-02T00:12:57;30.38;;;19.13;;
21661;SDS011;10992;48.170;8.596;2024-03-02T00:18:16;29.65;;;17.48;;
21661;SDS011;10992;48.170;8.596;2024-03-02T00:20:52;30.27;;;18.92;;
21661;SDS011;10992;48.170;8.596;2024-03-02T00:23:21;31.63;;;18.73;;
21661;SDS011;10992;48.170;8.596;2024-03-02T00:25:54;31.35;;;19.42;;
21661;SDS011;10992;48.170;8.596;2024-03-02T00:28:30;33.15;;;19.92;;
21661;SDS011;10992;48.170;8.596;2024-03-02T00:31:08;30.70;;;19.55;;
21661;SDS011;10992;48.170;8.596;2024-03-02T00:33:43;31.25;;;19.63;;
21661;SDS011;10992;48.170;8.596;2024-03-02T00:36:12;34.05;;;20.15;;
21661;SDS011;10992;48.170;8.596;2024-03-02T00:38:44;35.25;;;20.67;;
21661;SDS011;10992;48.170;8.596;2024-03-02T00:41:22;35.60;;;20.65;;
21661;SDS011;10992;48.170;8.596;2024-03-02T00:44:03;37.47;;;23.02;;
21661;SDS011;10992;48.170;8.596;2024-03-02T00:46:39;39.63;;;21.77;;
21661;SDS011;10992;48.170;8.596;2024-03-02T00:51:48;35.47;;;21.95;;
21661;SDS011;10992;48.170;8.596;2024-03-02T00:54:20;35.33;;;20.25;;
21661;SDS011;10992;48.170;8.596;2024-03-02T00:56:51;38.35;;;21.75;;
21661;SDS011;10992;48.170;8.596;2024-03-02T00:59:22;32.75;;;21.33;;
21661;SDS011;10992;48.170;8.596;2024-03-02T01:01:50;33.60;;;19.73;;
21661;SDS011;10992;48.170;8.596;2024-03-02T01:04:18;34.65;;;20.60;;
21661;SDS011;10992;48.170;8.596;2024-03-02T01:06:44;36.92;;;21.90;;
21661;SDS011;10992;48.170;8.596;2024-03-02T01:09:12;37.90;;;21.58;;
21661;SDS011;10992;48.170;8.596;2024-03-02T01:11:39;37.60;;;21.27;;
21661;SDS011;10992;48.170;8.596;2024-03-02T01:14:06;39.45;;;21.70;;
21661;SDS011;10992;48.170;8.596;2024-03-02T01:16:33;38.67;;;20.67;;
21661;SDS011;10992;48.170;8.596;2024-03-02T01:19:00;34.38;;;20.17;;
21661;SDS011;10992;48.170;8.596;2024-03-02T01:21:27;36.40;;;21.02;;
21661;SDS011;10992;48.170;8.596;2024-03-02T01:23:54;36.70;;;21.80;;
21661;SDS011;10992;48.170;8.596;2024-03-02T01:26:21;41.80;;;22.45;;
21661;SDS011;10992;48.170;8.596;2024-03-02T01:28:47;41.58;;;22.85;;
21661;SDS011;10992;48.170;8.596;2024-03-02T01:31:15;44.22;;;22.80;;
21661;SDS011;10992;48.170;8.596;2024-03-02T01:33:41;41.55;;;22.85;;
21661;SDS011;10992;48.170;8.596;2024-03-02T01:36:08;40.95;;;23.23;;
21661;SDS011;10992;48.170;8.596;2024-03-02T01:38:35;42.22;;;23.65;;
21661;SDS011;10992;48.170;8.596;2024-03-02T01:41:02;44.40;;;23.52;;
21661;SDS011;10992;48.170;8.596;2024-03-02T01:43:29;44.95;;;25.75;;
21661;SDS011;10992;48.170;8.596;2024-03-02T01:45:56;50.40;;;26.92;;
21661;SDS011;10992;48.170;8.596;2024-03-02T01:48:23;47.83;;;24.70;;
21661;SDS011;10992;48.170;8.596;2024-03-02T01:50:50;47.00;;;25.50;;
21661;SDS011;10992;48.170;8.596;2024-03-02T01:53:17;52.67;;;26.73;;
21661;SDS011;10992;48.170;8.596;2024-03-02T01:55:45;47.80;;;25.60;;
21661;SDS011;10992;48.170;8.596;2024-03-02T01:58:12;53.05;;;26.65;;
21661;SDS011;10992;48.170;8.596;2024-03-02T02:00:39;51.78;;;27.15;;
21661;SDS011;10992;48.170;8.596;2024-03-02T02:03:06;51.00;;;26.77;;
21661;SDS011;10992;48.170;8.596;2024-03-02T02:05:33;53.38;;;26.33;;
21661;SDS011;10992;48.170;8.596;2024-03-02T02:08:01;58.28;;;27.33;;
21661;SDS011;10992;48.170;8.596;2024-03-02T02:10:28;50.97;;;25.42;;
21661;SDS011;10992;48.170;8.596;2024-03-02T02:12:55;57.88;;;27.77;;
21661;SDS011;10992;48.170;8.596;2024-03-02T02:15:25;52.83;;;25.42;;
21661;SDS011;10992;48.170;8.596;2024-03-02T02:17:56;53.85;;;26.10;;
21661;SDS011;10992;48.170;8.596;2024-03-02T02:20:25;57.60;;;26.75;;
21661;SDS011;10992;48.170;8.596;2024-03-02T02:23:01;59.88;;;27.40;;
21661;SDS011;10992;48.170;8.596;2024-03-02T02:25:30;52.83;;;26.23;;
21661;SDS011;10992;48.170;8.596;2024-03-02T02:27:57;54.13;;;26.08;;
21661;SDS011;10992;48.170;8.596;2024-03-02T02:30:26;55.67;;;26.27;;
21661;SDS011;10992;48.170;8.596;2024-03-02T02:32:55;53.35;;;26.45;;
21661;SDS011;10992;48.170;8.596;2024-03-02T02:35:23;56.00;;;26.25;;
21661;SDS011;10992;48.170;8.596;2024-03-02T02:37:53;57.25;;;27.83;;
21661;SDS011;10992;48.170;8.596;2024-03-02T02:40:21;57.33;;;26.80;;
21661;SDS011;10992;48.170;8.596;2024-03-02T02:42:48;57.00;;;25.77;;
21661;SDS011;10992;48.170;8.596;2024-03-02T02:45:16;59.50;;;27.48;;
21661;SDS011;10992;48.170;8.596;2024-03-02T02:47:43;59.42;;;26.77;;
21661;SDS011;10992;48.170;8.596;2024-03-02T02:50:11;62.78;;;27.73;;
21661;SDS011;10992;48.170;8.596;2024-03-02T02:52:39;57.72;;;26.50;;
21661;SDS011;10992;48.170;8.596;2024-03-02T02:55:08;62.70;;;27.13;;
21661;SDS011;10992;48.170;8.596;2024-03-02T02:57:40;59.83;;;27.45;;
21661;SDS011;10992;48.170;8.596;2024-03-02T03:00:10;56.30;;;26.60;;
21661;SDS011;10992;48.170;8.596;2024-03-02T03:02:44;59.88;;;27.80;;
21661;SDS011;10992;48.170;8.596;2024-03-02T03:05:15;53.58;;;26.17;;
21661;SDS011;10992;48.170;8.596;2024-03-02T03:07:42;57.63;;;26.10;;
21661;SDS011;10992;48.170;8.596;2024-03-02T03:10:10;58.15;;;25.52;;
21661;SDS011;10992;48.170;8.596;2024-03-02T03:12:37;58.85;;;27.63;;
21661;SDS011;10992;48.170;8.596;2024-03-02T03:15:05;56.85;;;26.75;;
21661;SDS011;10992;48.170;8.596;2024-03-02T03:17:34;55.95;;;26.70;;
21661;SDS011;10992;48.170;8.596;2024-03-02T03:20:02;57.90;;;26.20;;
21661;SDS011;10992;48.170;8.596;2024-03-02T03:22:30;61.90;;;27.13;;
21661;SDS011;10992;48.170;8.596;2024-03-02T03:24:58;49.50;;;24.85;;
21661;SDS011;10992;48.170;8.596;2024-03-02T03:27:26;54.58;;;25.60;;
21661;SDS011;10992;48.170;8.596;2024-03-02T03:29:53;54.85;;;26.02;;
21661;SDS011;10992;48.170;8.596;2024-03-02T03:32:20;63.78;;;28.20;;
21661;SDS011;10992;48.170;8.596;2024-03-02T03:34:48;59.95;;;27.17;;
21661;SDS011;10992;48.170;8.596;2024-03-02T03:37:15;58.67;;;26.95;;
21661;SDS011;10992;48.170;8.596;2024-03-02T03:39:42;57.47;;;26.92;;
21661;SDS011;10992;48.170;8.596;2024-03-02T03:42:09;59.42;;;27.98;;
21661;SDS011;10992;48.170;8.596;2024-03-02T03:44:36;58.75;;;27.08;;
21661;SDS011;10992;48.170;8.596;2024-03-02T03:47:03;62.42;;;26.55;;
21661;SDS011;10992;48.170;8.596;2024-03-02T03:49:30;62.95;;;27.00;;
21661;SDS011;10992;48.170;8.596;2024-03-02T03:51:57;56.25;;;26.65;;
21661;SDS011;10992;48.170;8.596;2024-03-02T03:54:23;61.17;;;27.52;;
21661;SDS011;10992;48.170;8.596;2024-03-02T03:56:50;58.58;;;27.70;;
21661;SDS011;10992;48.170;8.596;2024-03-02T03:59:17;59.60;;;27.52;;
21661;SDS011;10992;48.170;8.596;2024-03-02T04:01:44;54.00;;;27.25;;
21661;SDS011;10992;48.170;8.596;2024-03-02T04:04:11;59.80;;;28.25;;
21661;SDS011;10992;48.170;8.596;2024-03-02T04:06:37;61.17;;;26.70;;
21661;SDS011;10992;48.170;8.596;2024-03-02T04:09:04;60.63;;;26.85;;
21661;SDS011;10992;48.170;8.596;2024-03-02T04:11:31;61.72;;;28.33;;
21661;SDS011;10992;48.170;8.596;2024-03-02T04:13:58;61.65;;;28.20;;
21661;SDS011;10992;48.170;8.596;2024-03-02T04:16:25;53.67;;;26.33;;
21661;SDS011;10992;48.170;8.596;2024-03-02T04:18:52;55.42;;;25.27;;
21661;SDS011;10992;48.170;8.596;2024-03-02T04:21:19;55.88;;;26.50;;
21661;SDS011;10992;48.170;8.596;2024-03-02T04:23:46;57.05;;;27.77;;
21661;SDS011;10992;48.170;8.596;2024-03-02T04:26:13;50.47;;;25.25;;
21661;SDS011;10992;48.170;8.596;2024-03-02T04:28:41;49.97;;;25.08;;
21661;SDS011;10992;48.170;8.596;2024-03-02T04:31:08;56.28;;;26.05;;
21661;SDS011;10992;48.170;8.596;2024-03-02T04:33:34;54.13;;;27.20;;
21661;SDS011;10992;48.170;8.596;2024-03-02T04:36:01;50.95;;;25.20;;
21661;SDS011;10992;48.170;8.596;2024-03-02T04:38:28;54.90;;;26.17;;
21661;SDS011;10992;48.170;8.596;2024-03-02T04:40:56;51.08;;;25.63;;
21661;SDS011;10992;48.170;8.596;2024-03-02T04:43:23;52.45;;;25.90;;
21661;SDS011;10992;48.170;8.596;2024-03-02T04:45:50;50.65;;;24.45;;
21661;SDS011;10992;48.170;8.596;2024-03-02T04:48:17;52.17;;;27.08;;
21661;SDS011;10992;48.170;8.596;2024-03-02T04:50:44;52.50;;;25.02;;
21661;SDS011;10992;48.170;8.596;2024-03-02T04:53:11;53.50;;;27.05;;
21661;SDS011;10992;48.170;8.596;2024-03-02T04:55:38;55.03;;;25.88;;
21661;SDS011;10992;48.170;8.596;2024-03-02T04:58:05;53.22;;;25.77;;
21661;SDS011;10992;48.170;8.596;2024-03-02T05:00:33;55.00;;;25.75;;
21661;SDS011;10992;48.170;8.596;2024-03-02T05:03:00;52.88;;;25.30;;
21661;SDS011;10992;48.170;8.596;2024-03-02T05:05:28;54.65;;;26.83;;
21661;SDS011;10992;48.170;8.596;2024-03-02T05:07:55;50.80;;;25.40;;
21661;SDS011;10992;48.170;8.596;2024-03-02T05:10:21;52.58;;;25.88;;
21661;SDS011;10992;48.170;8.596;2024-03-02T05:12:48;54.50;;;26.80;;
21661;SDS011;10992;48.170;8.596;2024-03-02T05:15:26;53.35;;;25.42;;
21661;SDS011;10992;48.170;8.596;2024-03-02T05:17:53;52.33;;;25.35;;
21661;SDS011;10992;48.170;8.596;2024-03-02T05:20:20;53.58;;;26.35;;
21661;SDS011;10992;48.170;8.596;2024-03-02T05:22:47;51.97;;;25.90;;
21661;SDS011;10992;48.170;8.596;2024-03-02T05:25:14;56.13;;;27.05;;
21661;SDS011;10992;48.170;8.596;2024-03-02T05:27:41;51.63;;;25.45;;
21661;SDS011;10992;48.170;8.596;2024-03-02T05:30:09;60.05;;;27.13;;
21661;SDS011;10992;48.170;8.596;2024-03-02T05:32:36;54.35;;;25.92;;
21661;SDS011;10992;48.170;8.596;2024-03-02T05:35:04;55.35;;;27.30;;
21661;SDS011;10992;48.170;8.596;2024-03-02T05:37:31;53.47;;;25.08;;
21661;SDS011;10992;48.170;8.596;2024-03-02T05:39:58;51.80;;;26.10;;
21661;SDS011;10992;48.170;8.596;2024-03-02T05:42:25;53.22;;;26.50;;
21661;SDS011;10992;48.170;8.596;2024-03-02T05:44:54;50.60;;;26.67;;
21661;SDS011;10992;48.170;8.596;2024-03-02T05:47:21;53.08;;;26.60;;
21661;SDS011;10992;48.170;8.596;2024-03-02T05:49:48;50.22;;;25.83;;
21661;SDS011;10992;48.170;8.596;2024-03-02T05:52:15;55.92;;;27.45;;
21661;SDS011;10992;48.170;8.596;2024-03-02T05:54:42;58.03;;;27.48;;
21661;SDS011;10992;48.170;8.596;2024-03-02T05:57:09;55.83;;;26.42;;
21661;SDS011;10992;48.170;8.596;2024-03-02T05:59:54;60.78;;;28.38;;
21661;SDS011;10992;48.170;8.596;2024-03-02T06:02:21;54.30;;;27.70;;
21661;SDS011;10992;48.170;8.596;2024-03-02T06:04:48;54.03;;;26.42;;
21661;SDS011;10992;48.170;8.596;2024-03-02T06:07:15;59.03;;;27.77;;
21661;SDS011;10992;48.170;8.596;2024-03-02T06:09:41;57.25;;;27.52;;
21661;SDS011;10992;48.170;8.596;2024-03-02T06:12:08;61.72;;;28.90;;
21661;SDS011;10992;48.170;8.596;2024-03-02T06:14:35;56.88;;;27.67;;
21661;SDS011;10992;48.170;8.596;2024-03-02T06:17:02;59.47;;;26.92;;
21661;SDS011;10992;48.170;8.596;2024-03-02T06:19:29;51.63;;;24.83;;
21661;SDS011;10992;48.170;8.596;2024-03-02T06:21:56;59.22;;;27.77;;
21661;SDS011;10992;48.170;8.596;2024-03-02T06:24:23;55.38;;;27.08;;
21661;SDS011;10992;48.170;8.596;2024-03-02T06:26:50;51.17;;;26.83;;
21661;SDS011;10992;48.170;8.596;2024-03-02T06:29:16;58.38;;;27.25;;
21661;SDS011;10992;48.170;8.596;2024-03-02T06:31:43;53.47;;;26.50;;
21661;SDS011;10992;48.170;8.596;2024-03-02T06:34:10;54.15;;;25.75;;
21661;SDS011;10992;48.170;8.596;2024-03-02T06:36:38;62.58;;;27.20;;
21661;SDS011;10992;48.170;8.596;2024-03-02T06:39:06;54.65;;;25.88;;
21661;SDS011;10992;48.170;8.596;2024-03-02T06:41:33;54.53;;;26.45;;
21661;SDS011;10992;48.170;8.596;2024-03-02T06:44:00;54.92;;;26.75;;
21661;SDS011;10992;48.170;8.596;2024-03-02T06:46:27;54.10;;;25.90;;
21661;SDS011;10992;48.170;8.596;2024-03-02T06:48:54;49.45;;;24.42;;
21661;SDS011;10992;48.170;8.596;2024-03-02T06:51:21;50.38;;;24.45;;
21661;SDS011;10992;48.170;8.596;2024-03-02T06:53:48;47.33;;;23.13;;
21661;SDS011;10992;48.170;8.596;2024-03-02T06:56:15;47.42;;;23.45;;
21661;SDS011;10992;48.170;8.596;2024-03-02T06:58:41;52.65;;;23.73;;
21661;SDS011;10992;48.170;8.596;2024-03-02T07:01:09;46.22;;;23.42;;
21661;SDS011;10992;48.170;8.596;2024-03-02T07:03:36;43.67;;;23.77;;
21661;SDS011;10992;48.170;8.596;2024-03-02T07:06:03;39.65;;;22.45;;
21661;SDS011;10992;48.170;8.596;2024-03-02T07:08:30;41.83;;;21.27;;
21661;SDS011;10992;48.170;8.596;2024-03-02T07:10:56;28.42;;;17.90;;
21661;SDS011;10992;48.170;8.596;2024-03-02T07:13:23;23.17;;;15.07;;
21661;SDS011;10992;48.170;8.596;2024-03-02T07:15:50;20.52;;;13.50;;
21661;SDS011;10992;48.170;8.596;2024-03-02T07:18:31;21.10;;;13.77;;
21661;SDS011;10992;48.170;8.596;2024-03-02T07:20:59;19.85;;;13.70;;
21661;SDS011;10992;48.170;8.596;2024-03-02T07:23:27;18.95;;;12.52;;
21661;SDS011;10992;48.170;8.596;2024-03-02T07:25:54;18.92;;;13.20;;
21661;SDS011;10992;48.170;8.596;2024-03-02T07:28:25;17.38;;;12.48;;
21661;SDS011;10992;48.170;8.596;2024-03-02T07:31:02;16.35;;;12.10;;
21661;SDS011;10992;48.170;8.596;2024-03-02T07:33:33;16.08;;;11.45;;
21661;SDS011;10992;48.170;8.596;2024-03-02T07:36:00;15.13;;;10.90;;
21661;SDS011;10992;48.170;8.596;2024-03-02T07:38:30;14.70;;;11.15;;
21661;SDS011;10992;48.170;8.596;2024-03-02T07:41:00;14.23;;;10.23;;
21661;SDS011;10992;48.170;8.596;2024-03-02T07:43:27;13.70;;;10.25;;
21661;SDS011;10992;48.170;8.596;2024-03-02T07:45:54;12.80;;;9.52;;
21661;SDS011;10992;48.170;8.596;2024-03-02T07:48:22;13.48;;;9.80;;
21661;SDS011;10992;48.170;8.596;2024-03-02T07:50:49;11.82;;;9.25;;
21661;SDS011;10992;48.170;8.596;2024-03-02T07:53:15;13.38;;;9.25;;
21661;SDS011;10992;48.170;8.596;2024-03-02T07:55:42;13.20;;;9.63;;
21661;SDS011;10992;48.170;8.596;2024-03-02T07:58:09;12.98;;;8.85;;
21661;SDS011;10992;48.170;8.596;2024-03-02T08:00:38;12.80;;;9.10;;
21661;SDS011;10992;48.170;8.596;2024-03-02T08:03:06;10.80;;;8.75;;
21661;SDS011;10992;48.170;8.596;2024-03-02T08:05:37;11.45;;;8.77;;
21661;SDS011;10992;48.170;8.596;2024-03-02T08:08:05;12.27;;;8.52;;
21661;SDS011;10992;48.170;8.596;2024-03-02T08:10:32;13.13;;;9.63;;
21661;SDS011;10992;48.170;8.596;2024-03-02T08:12:59;12.30;;;8.68;;
21661;SDS011;10992;48.170;8.596;2024-03-02T08:15:26;10.75;;;8.10;;
21661;SDS011;10992;48.170;8.596;2024-03-02T08:17:53;9.98;;;7.22;;
21661;SDS011;10992;48.170;8.596;2024-03-02T08:20:20;12.98;;;8.23;;
21661;SDS011;10992;48.170;8.596;2024-03-02T08:22:47;10.45;;;7.68;;
21661;SDS011;10992;48.170;8.596;2024-03-02T08:25:14;12.07;;;8.27;;
21661;SDS011;10992;48.170;8.596;2024-03-02T08:27:42;10.55;;;7.80;;
21661;SDS011;10992;48.170;8.596;2024-03-02T08:30:12;9.15;;;7.30;;
21661;SDS011;10992;48.170;8.596;2024-03-02T08:32:39;8.57;;;6.65;;
21661;SDS011;10992;48.170;8.596;2024-03-02T08:35:07;8.75;;;6.97;;
21661;SDS011;10992;48.170;8.596;2024-03-02T08:37:33;9.20;;;7.20;;
21661;SDS011;10992;48.170;8.596;2024-03-02T08:40:00;8.18;;;6.57;;
21661;SDS011;10992;48.170;8.596;2024-03-02T08:42:30;9.48;;;6.93;;
21661;SDS011;10992;48.170;8.596;2024-03-02T08:44:57;7.97;;;6.40;;
21661;SDS011;10992;48.170;8.596;2024-03-02T08:47:23;9.57;;;5.97;;
21661;SDS011;10992;48.170;8.596;2024-03-02T08:49:50;7.60;;;5.88;;
21661;SDS011;10992;48.170;8.596;2024-03-02T08:52:17;9.13;;;6.32;;
21661;SDS011;10992;48.170;8.596;2024-03-02T08:54:44;8.77;;;6.72;;
21661;SDS011;10992;48.170;8.596;2024-03-02T08:57:11;9.65;;;6.60;;
21661;SDS011;10992;48.170;8.596;2024-03-02T08:59:38;7.93;;;6.05;;
21661;SDS011;10992;48.170;8.596;2024-03-02T09:02:05;9.82;;;5.88;;
21661;SDS011;10992;48.170;8.596;2024-03-02T09:04:33;8.50;;;5.95;;
21661;SDS011;10992;48.170;8.596;2024-03-02T09:07:01;7.97;;;4.88;;
21661;SDS011;10992;48.170;8.596;2024-03-02T09:09:28;6.85;;;4.88;;
21661;SDS011;10992;48.170;8.596;2024-03-02T09:11:55;7.88;;;5.55;;
21661;SDS011;10992;48.170;8.596;2024-03-02T09:14:24;7.45;;;4.60;;
21661;SDS011;10992;48.170;8.596;2024-03-02T09:16:51;5.70;;;4.40;;
21661;SDS011;10992;48.170;8.596;2024-03-02T09:19:18;6.28;;;5.25;;
21661;SDS011;10992;48.170;8.596;2024-03-02T09:21:45;5.63;;;4.32;;
21661;SDS011;10992;48.170;8.596;2024-03-02T09:24:12;5.75;;;4.68;;
21661;SDS011;10992;48.170;8.596;2024-03-02T09:26:43;7.50;;;4.70;;
21661;SDS011;10992;48.170;8.596;2024-03-02T09:29:10;5.80;;;4.30;;
21661;SDS011;10992;48.170;8.596;2024-03-02T09:31:40;6.50;;;4.63;;
21661;SDS011;10992;48.170;8.596;2024-03-02T09:34:08;7.28;;;4.22;;
21661;SDS011;10992;48.170;8.596;2024-03-02T09:36:35;7.35;;;4.75;;
21661;SDS011;10992;48.170;8.596;2024-03-02T09:39:02;6.57;;;4.53;;
21661;SDS011;10992;48.170;8.596;2024-03-02T09:41:30;7.07;;;4.50;;
21661;SDS011;10992;48.170;8.596;2024-03-02T09:43:59;5.78;;;3.88;;
21661;SDS011;10992;48.170;8.596;2024-03-02T09:46:26;5.60;;;3.60;;
21661;SDS011;10992;48.170;8.596;2024-03-02T09:48:53;6.68;;;4.00;;
21661;SDS011;10992;48.170;8.596;2024-03-02T09:51:20;6.90;;;3.50;;
21661;SDS011;10992;48.170;8.596;2024-03-02T09:53:47;4.97;;;3.60;;
21661;SDS011;10992;48.170;8.596;2024-03-02T09:56:15;5.47;;;3.50;;
21661;SDS011;10992;48.170;8.596;2024-03-02T09:58:45;5.85;;;3.35;;
21661;SDS011;10992;48.170;8.596;2024-03-02T10:01:11;4.82;;;3.28;;
21661;SDS011;10992;48.170;8.596;2024-03-02T10:03:39;4.53;;;3.03;;
21661;SDS011;10992;48.170;8.596;2024-03-02T10:06:24;5.30;;;3.75;;
21661;SDS011;10992;48.170;8.596;2024-03-02T10:08:52;4.05;;;2.83;;
21661;SDS011;10992;48.170;8.596;2024-03-02T10:11:34;5.65;;;3.20;;
21661;SDS011;10992;48.170;8.596;2024-03-02T10:14:06;4.25;;;3.25;;
21661;SDS011;10992;48.170;8.596;2024-03-02T10:16:38;4.10;;;3.05;;
21661;SDS011;10992;48.170;8.596;2024-03-02T10:19:16;4.53;;;3.33;;
21661;SDS011;10992;48.170;8.596;2024-03-02T10:21:51;4.00;;;2.97;;
21661;SDS011;10992;48.170;8.596;2024-03-02T10:24:20;4.10;;;3.00;;
21661;SDS011;10992;48.170;8.596;2024-03-02T10:26:49;4.18;;;3.08;;
21661;SDS011;10992;48.170;8.596;2024-03-02T10:29:17;4.65;;;3.42;;
21661;SDS011;10992;48.170;8.596;2024-03-02T10:31:44;4.75;;;3.45;;
21661;SDS011;10992;48.170;8.596;2024-03-02T10:34:12;4.05;;;3.05;;
21661;SDS011;10992;48.170;8.596;2024-03-02T10:36:41;4.45;;;3.40;;
21661;SDS011;10992;48.170;8.596;2024-03-02T10:39:08;5.82;;;3.35;;
21661;SDS011;10992;48.170;8.596;2024-03-02T10:41:36;4.65;;;3.35;;
21661;SDS011;10992;48.170;8.596;2024-03-02T10:44:08;4.85;;;2.65;;
21661;SDS011;10992;48.170;8.596;2024-03-02T10:46:36;4.68;;;2.95;;
21661;SDS011;10992;48.170;8.596;2024-03-02T10:49:04;4.72;;;2.88;;
21661;SDS011;10992;48.170;8.596;2024-03-02T10:51:35;5.35;;;2.78;;
21661;SDS011;10992;48.170;8.596;2024-03-02T10:54:05;3.10;;;2.40;;
21661;SDS011;10992;48.170;8.596;2024-03-02T11:01:57;3.38;;;2.20;;
21661;SDS011;10992;48.170;8.596;2024-03-02T11:04:30;2.38;;;1.80;;
21661;SDS011;10992;48.170;8.596;2024-03-02T11:07:04;1.80;;;1.42;;
21661;SDS011;10992;48.170;8.596;2024-03-02T11:09:50;1.13;;;0.95;;
21661;SDS011;10992;48.170;8.596;2024-03-02T11:12:25;2.15;;;1.10;;
21661;SDS011;10992;48.170;8.596;2024-03-02T11:14:56;1.33;;;0.73;;
21661;SDS011;10992;48.170;8.596;2024-03-02T11:17:24;2.55;;;1.10;;
21661;SDS011;10992;48.170;8.596;2024-03-02T11:19:52;0.93;;;0.80;;
21661;SDS011;10992;48.170;8.596;2024-03-02T11:22:19;2.40;;;0.90;;
21661;SDS011;10992;48.170;8.596;2024-03-02T11:24:47;1.35;;;0.93;;
21661;SDS011;10992;48.170;8.596;2024-03-02T11:27:20;2.22;;;1.02;;
21661;SDS011;10992;48.170;8.596;2024-03-02T11:33:00;2.80;;;0.98;;
21661;SDS011;10992;48.170;8.596;2024-03-02T11:35:40;1.98;;;1.02;;
21661;SDS011;10992;48.170;8.596;2024-03-02T11:38:14;2.10;;;1.00;;
21661;SDS011;10992;48.170;8.596;2024-03-02T11:40:41;1.85;;;0.70;;
21661;SDS011;10992;48.170;8.596;2024-03-02T11:43:08;1.55;;;1.05;;
21661;SDS011;10992;48.170;8.596;2024-03-02T11:45:36;1.10;;;0.70;;
21661;SDS011;10992;48.170;8.596;2024-03-02T11:48:08;0.82;;;0.52;;
21661;SDS011;10992;48.170;8.596;2024-03-02T11:50:46;1.85;;;0.55;;
21661;SDS011;10992;48.170;8.596;2024-03-02T11:53:16;1.88;;;0.70;;
21661;SDS011;10992;48.170;8.596;2024-03-02T11:55:43;0.68;;;0.65;;
21661;SDS011;10992;48.170;8.596;2024-03-02T11:58:14;1.15;;;0.70;;
21661;SDS011;10992;48.170;8.596;2024-03-02T12:00:47;1.02;;;0.70;;
21661;SDS011;10992;48.170;8.596;2024-03-02T12:03:17;1.20;;;0.80;;
21661;SDS011;10992;48.170;8.596;2024-03-02T12:05:43;1.40;;;0.80;;
21661;SDS011;10992;48.170;8.596;2024-03-02T12:08:14;1.10;;;0.68;;
21661;SDS011;10992;48.170;8.596;2024-03-02T12:10:41;1.40;;;0.90;;
21661;SDS011;10992;48.170;8.596;2024-03-02T12:13:08;1.98;;;0.85;;
21661;SDS011;10992;48.170;8.596;2024-03-02T12:15:37;2.30;;;0.93;;
21661;SDS011;10992;48.170;8.596;2024-03-02T12:18:05;1.90;;;0.90;;
21661;SDS011;10992;48.170;8.596;2024-03-02T12:20:33;1.35;;;0.77;;
21661;SDS011;10992;48.170;8.596;2024-03-02T12:23:01;1.55;;;0.77;;
21661;SDS011;10992;48.170;8.596;2024-03-02T12:25:30;1.20;;;0.90;;
21661;SDS011;10992;48.170;8.596;2024-03-02T12:28:00;1.30;;;1.00;;
21661;SDS011;10992;48.170;8.596;2024-03-02T12:30:29;2.10;;;1.00;;
21661;SDS011;10992;48.170;8.596;2024-03-02T12:32:57;0.68;;;0.57;;
21661;SDS011;10992;48.170;8.596;2024-03-02T12:35:24;1.52;;;1.08;;
21661;SDS011;10992;48.170;8.596;2024-03-02T12:37:52;0.88;;;0.70;;
21661;SDS011;10992;48.170;8.596;2024-03-02T12:40:20;0.95;;;0.75;;
21661;SDS011;10992;48.170;8.596;2024-03-02T12:42:49;2.42;;;1.10;;
21661;SDS011;10992;48.170;8.596;2024-03-02T12:45:17;1.45;;;0.80;;
21661;SDS011;10992;48.170;8.596;2024-03-02T12:47:51;1.65;;;0.90;;
21661;SDS011;10992;48.170;8.596;2024-03-02T12:50:19;1.10;;;0.70;;
21661;SDS011;10992;48.170;8.596;2024-03-02T12:52:52;0.70;;;0.60;;
21661;SDS011;10992;48.170;8.596;2024-03-02T12:55:20;0.95;;;0.60;;
21661;SDS011;10992;48.170;8.596;2024-03-02T12:57:52;1.20;;;0.80;;
21661;SDS011;10992;48.170;8.596;2024-03-02T13:00:20;0.60;;;0.50;;
21661;SDS011;10992;48.170;8.596;2024-03-02T13:02:49;2.75;;;0.90;;
21661;SDS011;10992;48.170;8.596;2024-03-02T13:05:18;1.58;;;0.60;;
21661;SDS011;10992;48.170;8.596;2024-03-02T13:07:46;1.27;;;0.90;;
21661;SDS011;10992;48.170;8.596;2024-03-02T13:10:14;1.73;;;0.73;;
21661;SDS011;10992;48.170;8.596;2024-03-02T13:12:42;1.30;;;0.80;;
21661;SDS011;10992;48.170;8.596;2024-03-02T13:15:09;1.00;;;0.82;;
21661;SDS011;10992;48.170;8.596;2024-03-02T13:17:41;1.70;;;0.90;;
21661;SDS011;10992;48.170;8.596;2024-03-02T13:20:08;1.40;;;0.90;;
21661;SDS011;10992;48.170;8.596;2024-03-02T13:22:37;1.25;;;0.68;;
21661;SDS011;10992;48.170;8.596;2024-03-02T13:25:04;1.95;;;1.27;;
21661;SDS011;10992;48.170;8.596;2024-03-02T13:27:33;1.55;;;1.00;;
21661;SDS011;10992;48.170;8.596;2024-03-02T13:30:03;1.20;;;0.95;;
21661;SDS011;10992;48.170;8.596;2024-03-02T13:32:32;1.20;;;0.90;;
21661;SDS011;10992;48.170;8.596;2024-03-02T13:34:59;1.67;;;0.80;;
21661;SDS011;10992;48.170;8.596;2024-03-02T13:37:26;1.38;;;1.08;;
21661;SDS011;10992;48.170;8.596;2024-03-02T13:39:53;1.83;;;0.98;;
21661;SDS011;10992;48.170;8.596;2024-03-02T13:42:20;1.45;;;1.17;;
21661;SDS011;10992;48.170;8.596;2024-03-02T13:44:48;1.33;;;1.00;;
21661;SDS011;10992;48.170;8.596;2024-03-02T13:47:17;1.55;;;1.10;;
21661;SDS011;10992;48.170;8.596;2024-03-02T13:49:44;1.88;;;1.10;;
21661;SDS011;10992;48.170;8.596;2024-03-02T13:52:13;2.22;;;1.10;;
21661;SDS011;10992;48.170;8.596;2024-03-02T13:54:40;2.05;;;1.02;;
21661;SDS011;10992;48.170;8.596;2024-03-02T13:57:08;2.70;;;1.50;;
21661;SDS011;10992;48.170;8.596;2024-03-02T13:59:36;3.05;;;1.65;;
21661;SDS011;10992;48.170;8.596;2024-03-02T14:02:04;2.00;;;1.10;;
21661;SDS011;10992;48.170;8.596;2024-03-02T14:04:35;2.75;;;1.30;;
21661;SDS011;10992;48.170;8.596;2024-03-02T14:07:02;1.88;;;1.10;;
21661;SDS011;10992;48.170;8.596;2024-03-02T14:09:29;2.05;;;1.30;;
21661;SDS011;10992;48.170;8.596;2024-03-02T14:11:56;1.90;;;1.30;;
21661;SDS011;10992;48.170;8.596;2024-03-02T14:14:23;5.18;;;1.77;;
21661;SDS011;10992;48.170;8.596;2024-03-02T14:16:50;3.45;;;1.25;;
21661;SDS011;10992;48.170;8.596;2024-03-02T14:19:18;1.70;;;1.17;;
21661;SDS011;10992;48.170;8.596;2024-03-02T14:21:45;2.08;;;1.33;;
21661;SDS011;10992;48.170;8.596;2024-03-02T14:24:13;1.85;;;1.13;;
21661;SDS011;10992;48.170;8.596;2024-03-02T14:26:40;2.35;;;1.10;;
21661;SDS011;10992;48.170;8.596;2024-03-02T14:29:07;1.90;;;1.10;;
21661;SDS011;10992;48.170;8.596;2024-03-02T14:31:34;2.10;;;0.98;;
21661;SDS011;10992;48.170;8.596;2024-03-02T14:34:01;1.73;;;1.13;;
21661;SDS011;10992;48.170;8.596;2024-03-02T14:36:29;0.70;;;0.65;;
21661;SDS011;10992;48.170;8.596;2024-03-02T14:38:56;1.30;;;1.08;;
21661;SDS011;10992;48.170;8.596;2024-03-02T14:41:23;1.50;;;0.98;;
21661;SDS011;10992;48.170;8.596;2024-03-02T14:43:51;1.92;;;1.00;;
21661;SDS011;10992;48.170;8.596;2024-03-02T14:46:19;1.23;;;0.75;;
21661;SDS011;10992;48.170;8.596;2024-03-02T14:48:46;0.52;;;0.40;;
21661;SDS011;10992;48.170;8.596;2024-03-02T14:51:13;0.82;;;0.50;;
21661;SDS011;10992;48.170;8.596;2024-03-02T14:53:40;0.88;;;0.60;;